Yuma, AZ

8:16 AM MST on August 21, 2014 (GMT -0700)
Yuma Marine Corps Air Station | Change Station
CLOSE
Current Station
Airport
Location: Yuma MCAS,
Elevation: 213 ft
Nearby Weather Stations

Elev 213 ft 32.66 °N, 114.61 °W | Updated 19 minutes ago

Scattered Clouds
Scattered Clouds
87 °F
Feels Like 88 °F
N
6
Wind Variable Wind from NE

Today
High -- | Low -- °F
--% Chance of Precip.
Yesterday
High -- | Low -- °F
Precip. -- in
6:06 AM 7:16 PM
Waning Crescent, 14% visible
Pressure 29.83 in
Visibility 10.0 miles
Clouds Few 10000 ft
Scattered Clouds 15000 ft
Heat Index 88 °F
Dew Point 62 °F
Humidity 43%
Rainfall 0.00 in
Snow Depth Not available.
UV 1 out of 12
Pollen 6.60 out of 12
Air Quality Not available.
Flu Activity Not available.
METAR KNYL 211457Z 05005KT 10SM FEW100 SCT150 31/17 A2984 RMK AO2 SLP101 T03060167 51015

More Conditions Fewer Conditions

Pressure 29.83 in
Visibility 10.0 miles
Clouds Few 10000 ft
Scattered Clouds 15000 ft
Heat Index 88 °F
Dew Point 62 °F
Humidity 43%
Rainfall 0.00 in
Snow Depth Not available.
UV 1 out of 12
Pollen 6.60 out of 12
Air Quality Not available.
Flu Activity Not available.
METAR KNYL 211457Z 05005KT 10SM FEW100 SCT150 31/17 A2984 RMK AO2 SLP101 T03060167 51015

More Conditions Fewer Conditions

10-Day Weather Forecast

Almanac

Astronomy

Aug. 21, 2014 Rise Set
Actual Time 6:06 AM MST 7:16 PM MST
Civil Twilight 5:40 AM MST 7:41 PM MST
Nautical Twilight 5:09 AM MST 8:12 PM MST
Astronomical Twilight 4:38 AM MST 8:43 PM MST
Moon 2:45 AM MST 4:43 PM MST
Length of Visible Light 14h 01m
Length of Day
13h 10m
Tomorrow will be 1m 50s shorter.
Waning Crescent, 14% of the Moon is Illuminated
Today
Waning Crescent
Aug 25
New
Sep 2
First Quarter
Sep 8
Full
Sep 15
Last Quarter

Today's Extremes

State Highs State Lows

Community

WunderPhotos

Upload Photos

1,745,947 photos uploaded!

Nearby

Snow Depth

Station Depth Elevation
White Horse Lake 1 in 7180 ft
Workman Creek 2 in 6900 ft
Mormon Mountain 0 in 7500 ft
Promontory 0 in 7930 ft
Snowslide Canyon 1 in 9730 ft

Earthquake Activity

City Distance Mag. Time & Date
Yucca Valley, California 155 miles 3.8 8:57 PM MST
2014-08-14
Alberto Oviedo Mota, Mexico 48 miles 2.8 3:03 PM MST
2014-08-14
Minimum magnitude displayed is 2.5.

Coastal Water Temperatures

Place Temperature
No Stations Reporting

Nearby Weather Stations